Time;durP1;ratioP1;P1;durP2;ratioP2;P2;SDS_P1;SDS_P2;PMS_P1;PMS_P2;Temp;Humidity;BMP_temperature;BMP_pressure;BME280_temperature;BME280_humidity;BME280_pressure;Samples;Min_cycle;Max_cycle;Signal;HPM_P1;HPM_P2
2023/10/30 00:01:36;;;;;;;8.45;2.40;;;;;;;9.70;100.00;99586.03;4899093;29;20128;-87
2023/10/30 00:04:01;;;;;;;10.70;3.03;;;;;;;9.68;100.00;99590.00;4898525;29;20048;-89
2023/10/30 00:06:27;;;;;;;13.80;3.38;;;;;;;9.64;100.00;99592.34;4915694;29;20504;-84
2023/10/30 00:08:52;;;;;;;12.38;3.45;;;;;;;9.71;100.00;99589.50;4898492;29;20042;-86
2023/10/30 00:11:17;;;;;;;13.02;2.92;;;;;;;9.72;100.00;99597.28;4915619;29;20032;-86
2023/10/30 00:13:43;;;;;;;7.88;2.65;;;;;;;9.63;100.00;99577.38;4898228;29;20036;-86
2023/10/30 00:16:10;;;;;;;11.02;3.00;;;;;;;9.66;100.00;99595.56;4915341;29;20040;-85
2023/10/30 00:18:38;;;;;;;14.77;3.50;;;;;;;9.62;100.00;99592.56;4915353;29;20481;-88
2023/10/30 00:21:04;;;;;;;15.43;2.97;;;;;;;9.68;100.00;99606.00;4898562;29;20548;-85
2023/10/30 00:23:29;;;;;;;8.63;2.47;;;;;;;9.59;100.00;99610.94;4915453;29;20020;-84
2023/10/30 00:25:55;;;;;;;9.40;3.30;;;;;;;9.56;100.00;99622.88;4915390;29;20055;-90
2023/10/30 00:28:20;;;;;;;14.48;2.78;;;;;;;9.55;100.00;99618.59;4915651;29;20028;-87
2023/10/30 00:30:46;;;;;;;9.07;2.90;;;;;;;9.54;100.00;99638.31;4915309;29;20034;-87
2023/10/30 00:33:11;;;;;;;16.20;3.42;;;;;;;9.53;100.00;99643.88;4915386;29;20095;-89
2023/10/30 00:35:36;;;;;;;15.05;3.25;;;;;;;9.55;100.00;99636.47;4915351;29;20032;-86
2023/10/30 00:38:02;;;;;;;10.13;3.10;;;;;;;9.58;100.00;99634.13;4915474;29;20032;-88
2023/10/30 00:40:27;;;;;;;5.15;2.53;;;;;;;9.57;100.00;99640.50;4913911;29;20028;-89
2023/10/30 00:42:52;;;;;;;13.05;3.28;;;;;;;9.58;100.00;99646.66;4914086;29;20039;-88
2023/10/30 00:45:18;;;;;;;10.25;2.58;;;;;;;9.58;100.00;99644.81;4898370;29;20046;-87
2023/10/30 00:47:45;;;;;;;10.00;2.88;;;;;;;9.42;100.00;99631.38;4913948;29;20032;-88
2023/10/30 00:50:10;;;;;;;13.02;3.30;;;;;;;9.53;100.00;99658.03;4915352;29;20366;-88
2023/10/30 00:52:36;;;;;;;13.32;3.72;;;;;;;9.46;100.00;99649.34;4914155;29;20032;-90
2023/10/30 00:55:02;;;;;;;9.43;2.97;;;;;;;9.44;100.00;99647.97;4898107;29;20048;-89
2023/10/30 00:57:27;;;;;;;11.65;3.03;;;;;;;9.57;100.00;99651.19;4913834;29;20477;-89
2023/10/30 00:59:56;;;;;;;11.75;2.85;;;;;;;9.58;100.00;99658.16;4915499;29;20044;-89
2023/10/30 01:02:21;;;;;;;12.55;3.05;;;;;;;9.56;100.00;99664.78;4915119;29;20032;-90
2023/10/30 01:04:46;;;;;;;19.30;3.78;;;;;;;9.60;100.00;99676.59;4918305;29;20058;-88
2023/10/30 01:07:11;;;;;;;7.85;2.97;;;;;;;9.52;100.00;99668.94;4901396;29;20036;-90
2023/10/30 01:09:37;;;;;;;8.35;3.63;;;;;;;9.70;100.00;99686.66;4918060;29;20191;-89
2023/10/30 01:12:03;;;;;;;11.27;2.53;;;;;;;9.61;100.00;99679.03;4918648;29;20047;-87
2023/10/30 01:14:28;;;;;;;10.68;3.15;;;;;;;9.69;100.00;99683.16;4900983;29;20032;-87
2023/10/30 01:16:53;;;;;;;11.93;3.17;;;;;;;9.69;100.00;99685.84;4901295;29;20086;-88
2023/10/30 01:19:19;;;;;;;11.68;3.33;;;;;;;9.68;100.00;99689.56;4917826;29;20031;-89
2023/10/30 01:21:45;;;;;;;14.38;3.30;;;;;;;9.57;100.00;99667.22;4916871;29;20032;-88
2023/10/30 01:24:11;;;;;;;9.57;2.90;;;;;;;9.70;100.00;99689.31;4917835;29;20092;-89
2023/10/30 01:26:36;;;;;;;15.32;2.72;;;;;;;9.64;100.00;99685.75;4918010;29;20036;-88
2023/10/30 01:29:03;;;;;;;10.85;3.05;;;;;;;9.67;100.00;99685.28;4918002;29;20056;-90
2023/10/30 01:31:28;;;;;;;13.20;2.88;;;;;;;9.75;100.00;99694.75;4900999;29;20473;-90
2023/10/30 01:33:54;;;;;;;11.57;2.53;;;;;;;9.66;100.00;99672.97;4918046;29;20084;-90
2023/10/30 01:36:19;;;;;;;8.38;2.90;;;;;;;9.72;100.00;99682.69;4917747;29;20028;-88
2023/10/30 01:38:45;;;;;;;8.27;3.15;;;;;;;9.67;100.00;99669.25;4900903;29;20039;-87
2023/10/30 01:41:10;;;;;;;13.35;2.92;;;;;;;9.69;100.00;99682.38;4916316;29;20032;-88
2023/10/30 01:43:35;;;;;;;7.72;2.75;;;;;;;9.65;100.00;99671.34;4917790;29;20035;-87
2023/10/30 01:46:01;;;;;;;17.75;3.63;;;;;;;9.70;100.00;99692.00;4917388;29;20044;-87
2023/10/30 01:48:32;;;;;;;13.18;4.00;;;;;;;9.67;100.00;99687.94;4900886;29;20028;-88
2023/10/30 01:50:59;;;;;;;9.07;2.63;;;;;;;9.76;100.00;99693.72;4900702;29;20028;-88
2023/10/30 01:53:26;;;;;;;6.68;2.53;;;;;;;9.72;100.00;99689.91;4900391;29;20067;-89
2023/10/30 01:55:52;;;;;;;9.60;3.42;;;;;;;9.67;100.00;99689.78;4917704;29;20489;-88
2023/10/30 01:58:24;;;;;;;12.55;3.67;;;;;;;9.71;100.00;99691.75;4917324;29;20128;-89
2023/10/30 02:00:50;;;;;;;17.23;3.50;;;;;;;9.78;100.00;99702.28;4917674;29;20040;-88
2023/10/30 02:03:16;;;;;;;8.98;3.08;;;;;;;9.82;100.00;99698.91;4917437;29;20508;-86
2023/10/30 02:05:42;;;;;;;8.77;3.05;;;;;;;9.77;100.00;99692.66;4917444;29;20036;-88
2023/10/30 02:08:08;;;;;;;9.20;2.70;;;;;;;9.79;100.00;99703.91;4916156;29;20437;-87
2023/10/30 02:10:33;;;;;;;17.08;5.18;;;;;;;9.85;100.00;99706.47;4900081;29;20039;-86
2023/10/30 02:12:59;;;;;;;13.90;2.65;;;;;;;9.86;100.00;99705.41;4916713;29;20110;-87
2023/10/30 02:15:24;;;;;;;9.82;2.78;;;;;;;9.84;100.00;99704.84;4916710;29;20036;-88
2023/10/30 02:17:50;;;;;;;12.23;2.80;;;;;;;9.85;100.00;99703.00;4917342;29;20034;-90
2023/10/30 02:20:15;;;;;;;9.70;2.72;;;;;;;9.88;100.00;99703.31;4917184;29;20040;-91
2023/10/30 02:22:40;;;;;;;10.82;3.10;;;;;;;9.89;100.00;99707.59;4917004;29;20036;-86
2023/10/30 02:25:06;;;;;;;5.82;2.35;;;;;;;9.85;100.00;99697.66;4916756;29;20051;-88
2023/10/30 02:27:32;;;;;;;9.88;3.05;;;;;;;9.84;100.00;99704.84;4916989;29;20036;-88
2023/10/30 02:29:57;;;;;;;10.52;3.15;;;;;;;9.83;100.00;99702.38;4916898;29;20032;-86
2023/10/30 02:32:23;;;;;;;11.13;2.83;;;;;;;9.76;100.00;99702.53;4916697;29;20042;-88
2023/10/30 02:34:48;;;;;;;4.18;2.75;;;;;;;9.79;100.00;99698.56;4916800;29;20067;-89
2023/10/30 02:37:14;;;;;;;6.97;2.33;;;;;;;9.85;100.00;99700.31;4915362;29;20035;-89
2023/10/30 02:39:39;;;;;;;14.63;2.47;;;;;;;9.86;100.00;99683.25;4916739;29;20406;-86
2023/10/30 02:42:05;;;;;;;10.48;3.30;;;;;;;9.83;100.00;99689.03;4899557;29;20032;-87
2023/10/30 02:44:30;;;;;;;10.95;2.85;;;;;;;9.79;100.00;99685.22;4915452;29;20104;-88
2023/10/30 02:46:56;;;;;;;9.75;2.38;;;;;;;9.79;100.00;99686.03;4915302;29;20047;-87
2023/10/30 02:49:22;;;;;;;8.93;2.92;;;;;;;9.75;100.00;99679.56;4915405;29;20533;-88
2023/10/30 02:51:48;;;;;;;8.00;2.80;;;;;;;9.78;100.00;99673.72;4899618;29;20024;-89
2023/10/30 02:54:14;;;;;;;11.23;3.38;;;;;;;9.78;100.00;99672.91;4916534;29;20561;-87
2023/10/30 02:56:39;;;;;;;9.18;2.72;;;;;;;9.78;100.00;99676.41;4916640;29;20032;-86
2023/10/30 02:59:05;;;;;;;11.30;2.60;;;;;;;9.89;100.00;99685.44;4916358;29;20047;-88
2023/10/30 03:01:30;;;;;;;15.27;2.97;;;;;;;9.90;100.00;99674.53;4916497;29;20032;-88
2023/10/30 03:03:55;;;;;;;11.20;2.53;;;;;;;9.85;100.00;99676.28;4899338;29;20121;-87
2023/10/30 03:06:21;;;;;;;6.05;2.50;;;;;;;9.86;100.00;99684.06;4916459;29;20083;-86
2023/10/30 03:08:46;;;;;;;8.30;2.85;;;;;;;9.81;100.00;99683.13;4916200;29;20047;-88
2023/10/30 03:11:12;;;;;;;8.88;2.75;;;;;;;9.77;100.00;99684.66;4916335;29;20035;-88
2023/10/30 03:13:37;;;;;;;13.20;3.10;;;;;;;9.82;100.00;99693.56;4916201;29;20035;-88
2023/10/30 03:16:03;;;;;;;8.75;2.90;;;;;;;9.89;100.00;99691.59;4899484;29;20040;-89
2023/10/30 03:18:28;;;;;;;6.85;2.55;;;;;;;9.85;100.00;99689.63;4899081;29;20473;-87
2023/10/30 03:20:54;;;;;;;5.45;2.22;;;;;;;9.89;100.00;99706.81;4899224;29;20096;-88
2023/10/30 03:23:20;;;;;;;9.63;3.17;;;;;;;9.86;100.00;99701.94;4899199;29;20024;-88
2023/10/30 03:25:46;;;;;;;10.40;2.92;;;;;;;9.87;100.00;99706.22;4914316;29;20485;-87
2023/10/30 03:28:11;;;;;;;8.88;2.70;;;;;;;9.82;100.00;99709.59;4916293;29;20055;-89
2023/10/30 03:30:37;;;;;;;7.75;2.40;;;;;;;9.81;100.00;99707.97;4914753;29;20082;-88
2023/10/30 03:33:03;;;;;;;14.10;2.25;;;;;;;9.74;100.00;99698.47;4914937;29;20032;-88
2023/10/30 03:35:28;;;;;;;12.10;3.95;;;;;;;9.78;100.00;99688.94;4915958;29;20068;-88
2023/10/30 03:37:54;;;;;;;12.10;3.20;;;;;;;9.80;100.00;99697.53;4916095;29;20520;-87
2023/10/30 03:40:19;;;;;;;11.10;2.65;;;;;;;9.75;100.00;99687.56;4914707;29;20114;-87
2023/10/30 03:42:44;;;;;;;7.82;2.63;;;;;;;9.67;100.00;99687.13;4915807;29;20032;-87
2023/10/30 03:45:10;;;;;;;14.20;2.80;;;;;;;9.67;100.00;99687.13;4915794;29;20031;-86
2023/10/30 03:47:35;;;;;;;9.32;3.15;;;;;;;9.70;100.00;99694.66;4898681;29;20040;-86
2023/10/30 03:50:00;;;;;;;11.82;3.03;;;;;;;9.58;100.00;99687.50;4898828;29;20067;-87
2023/10/30 03:52:26;;;;;;;10.23;2.83;;;;;;;9.62;100.00;99685.97;4898743;29;20063;-86
2023/10/30 03:54:51;;;;;;;12.15;3.20;;;;;;;9.54;100.00;99683.69;4914375;29;20035;-86
2023/10/30 03:57:16;;;;;;;14.43;2.67;;;;;;;9.59;100.00;99699.00;4915689;29;20032;-86
2023/10/30 03:59:42;;;;;;;10.95;2.55;;;;;;;9.58;100.00;99700.84;4915653;29;20039;-84
2023/10/30 04:02:07;;;;;;;9.43;2.80;;;;;;;9.57;100.00;99706.44;4915372;29;20039;-84
2023/10/30 04:04:32;;;;;;;8.48;2.70;;;;;;;9.50;100.00;99709.19;4914079;29;20028;-84
2023/10/30 04:06:58;;;;;;;9.85;3.10;;;;;;;9.41;100.00;99699.94;4915366;29;20477;-85
2023/10/30 04:09:23;;;;;;;15.23;3.40;;;;;;;9.44;100.00;99704.81;4915345;29;20057;-85
2023/10/30 04:11:48;;;;;;;10.05;3.38;;;;;;;9.48;100.00;99713.97;4915354;29;20069;-85
2023/10/30 04:14:14;;;;;;;10.00;3.10;;;;;;;9.42;100.00;99693.56;4914087;29;20028;-87
2023/10/30 04:16:39;;;;;;;12.02;3.35;;;;;;;9.40;100.00;99703.66;4915579;29;20028;-87
2023/10/30 04:19:04;;;;;;;8.10;2.67;;;;;;;9.32;100.00;99690.69;4915376;29;20036;-87
2023/10/30 04:21:30;;;;;;;15.13;3.40;;;;;;;9.32;100.00;99682.69;4915561;29;20031;-89
2023/10/30 04:23:55;;;;;;;13.35;4.35;;;;;;;9.30;100.00;99692.78;4915389;29;20091;-86
2023/10/30 04:26:21;;;;;;;13.25;3.63;;;;;;;9.32;100.00;99704.84;4915080;29;20040;-84
2023/10/30 04:28:46;;;;;;;15.02;3.10;;;;;;;9.23;100.00;99700.88;4915226;29;20028;-84
2023/10/30 04:31:11;;;;;;;13.30;2.70;;;;;;;9.20;100.00;99708.53;4898007;29;20044;-85
2023/10/30 04:33:37;;;;;;;14.07;2.95;;;;;;;9.18;100.00;99705.28;4915150;29;20103;-85
2023/10/30 04:36:03;;;;;;;14.43;3.50;;;;;;;9.24;100.00;99710.50;4913694;29;20083;-85
2023/10/30 04:38:32;;;;;;;12.40;2.78;;;;;;;9.25;100.00;99695.31;4901104;29;20536;-85
2023/10/30 04:41:01;;;;;;;10.63;2.70;;;;;;;9.28;100.00;99710.88;4918394;29;20037;-86
2023/10/30 04:43:26;;;;;;;10.57;3.63;;;;;;;9.23;100.00;99708.06;4918187;29;20028;-85
2023/10/30 04:45:52;;;;;;;8.93;2.83;;;;;;;9.20;100.00;99703.19;4918154;29;20481;-85
2023/10/30 04:48:17;;;;;;;12.07;3.05;;;;;;;9.27;100.00;99718.06;4917026;29;20520;-85
2023/10/30 04:50:43;;;;;;;10.73;2.90;;;;;;;9.22;100.00;99711.78;4916828;29;20173;-86
2023/10/30 04:53:08;;;;;;;11.23;3.08;;;;;;;9.20;100.00;99709.34;4916911;29;20027;-84
2023/10/30 04:55:34;;;;;;;7.88;2.90;;;;;;;9.17;100.00;99701.00;4916943;29;20040;-85
2023/10/30 04:58:00;;;;;;;17.77;3.47;;;;;;;9.24;100.00;99704.34;4918080;29;20024;-84
2023/10/30 05:00:25;;;;;;;12.48;3.58;;;;;;;9.23;100.00;99705.41;4917958;29;20036;-84
2023/10/30 05:02:50;;;;;;;8.68;2.72;;;;;;;9.21;100.00;99696.81;4916685;29;20035;-84
2023/10/30 05:05:16;;;;;;;15.05;2.85;;;;;;;9.19;100.00;99699.72;4916619;29;20044;-85
2023/10/30 05:07:44;;;;;;;11.13;2.40;;;;;;;9.09;100.00;99690.69;4900953;29;20067;-84
2023/10/30 05:10:09;;;;;;;8.15;2.90;;;;;;;9.04;100.00;99694.06;4900972;29;20127;-84
2023/10/30 05:12:34;;;;;;;5.35;2.60;;;;;;;9.08;100.00;99700.56;4916730;29;20115;-83
2023/10/30 05:15:00;;;;;;;9.30;3.10;;;;;;;8.97;100.00;99693.38;4917831;29;20032;-83
2023/10/30 05:17:26;;;;;;;10.38;3.28;;;;;;;8.95;100.00;99696.25;4917793;29;20036;-84
2023/10/30 05:19:51;;;;;;;11.10;3.00;;;;;;;8.80;100.00;99676.44;4917832;29;20032;-87
2023/10/30 05:22:17;;;;;;;7.40;2.72;;;;;;;9.09;100.00;99702.16;4916969;29;20051;-86
2023/10/30 05:24:42;;;;;;;10.73;3.13;;;;;;;9.11;100.00;99705.41;4916415;29;20123;-85
2023/10/30 05:27:07;;;;;;;14.10;2.85;;;;;;;9.08;100.00;99705.88;4917678;29;20029;-88
2023/10/30 05:29:33;;;;;;;13.77;3.35;;;;;;;9.09;100.00;99698.69;4917703;29;20482;-85
2023/10/30 05:32:02;;;;;;;16.55;3.63;;;;;;;9.09;100.00;99696.84;4917730;29;20048;-85
2023/10/30 05:34:30;;;;;;;13.35;3.10;;;;;;;9.08;100.00;99699.75;4916559;29;20515;-85
2023/10/30 05:36:56;;;;;;;11.13;2.75;;;;;;;8.99;100.00;99684.09;4900514;29;20036;-84
2023/10/30 05:39:21;;;;;;;12.52;3.45;;;;;;;9.00;100.00;99687.56;4900598;29;20028;-83
2023/10/30 05:41:46;;;;;;;11.77;2.97;;;;;;;8.84;100.00;99678.41;4916060;29;20493;-82
2023/10/30 05:44:12;;;;;;;12.05;3.05;;;;;;;8.77;100.00;99682.22;4917299;29;20032;-83
2023/10/30 05:46:37;;;;;;;13.18;3.42;;;;;;;8.74;100.00;99693.34;4900417;29;20501;-84
2023/10/30 05:49:03;;;;;;;9.65;2.85;;;;;;;8.71;100.00;99691.16;4917398;29;20035;-84
2023/10/30 05:51:28;;;;;;;9.77;3.40;;;;;;;8.68;100.00;99693.25;4917309;29;20034;-84
2023/10/30 05:53:53;;;;;;;14.55;3.17;;;;;;;8.60;100.00;99688.22;4900286;29;20032;-83
2023/10/30 05:56:19;;;;;;;14.10;2.55;;;;;;;8.60;100.00;99676.75;4916257;29;20040;-83
2023/10/30 05:58:44;;;;;;;12.82;3.05;;;;;;;8.58;100.00;99678.84;4917183;29;20035;-84
2023/10/30 06:01:09;;;;;;;12.60;3.08;;;;;;;8.46;100.00;99660.19;4916180;29;20130;-83
2023/10/30 06:03:34;;;;;;;9.10;2.50;;;;;;;8.46;100.00;99670.84;4917575;29;20032;-84
2023/10/30 06:06:00;;;;;;;13.30;3.58;;;;;;;8.49;100.00;99674.91;4900321;29;20682;-86
2023/10/30 06:08:25;;;;;;;13.30;2.78;;;;;;;8.42;100.00;99671.53;4917064;29;20043;-85
2023/10/30 06:10:51;;;;;;;12.80;2.80;;;;;;;8.41;100.00;99677.91;4917473;29;20028;-88
2023/10/30 06:13:16;;;;;;;15.07;3.53;;;;;;;8.30;100.00;99680.25;4916977;29;20279;-86
2023/10/30 06:15:42;;;;;;;11.93;3.03;;;;;;;8.34;100.00;99693.94;4916125;29;20074;-85
2023/10/30 06:18:07;;;;;;;10.60;2.72;;;;;;;8.33;100.00;99686.97;4900167;29;20080;-84
2023/10/30 06:20:35;;;;;;;9.77;3.30;;;;;;;8.34;100.00;99686.78;4916820;29;20431;-85
2023/10/30 06:23:00;;;;;;;15.02;3.58;;;;;;;8.33;100.00;99701.13;4916826;29;20043;-84
2023/10/30 06:25:26;;;;;;;11.75;2.78;;;;;;;8.33;100.00;99701.13;4916718;29;20381;-83
2023/10/30 06:27:53;;;;;;;10.43;3.05;;;;;;;8.37;100.00;99701.47;4916590;29;20496;-83
2023/10/30 06:30:18;;;;;;;12.88;3.28;;;;;;;8.33;100.00;99706.47;4916758;29;20032;-83
2023/10/30 06:32:44;;;;;;;12.15;3.83;;;;;;;8.34;100.00;99717.91;4915559;29;20043;-84
2023/10/30 06:35:10;;;;;;;13.80;2.78;;;;;;;8.25;100.00;99716.59;4916572;29;20087;-83
2023/10/30 06:37:36;;;;;;;12.52;3.22;;;;;;;8.32;100.00;99717.31;4899957;29;20393;-86
2023/10/30 06:40:03;;;;;;;9.90;2.80;;;;;;;8.35;100.00;99723.03;4915349;29;20032;-84
2023/10/30 06:42:28;;;;;;;12.68;2.63;;;;;;;8.29;100.00;99726.56;4916431;29;20028;-83
2023/10/30 06:44:54;;;;;;;12.55;3.60;;;;;;;8.27;100.00;99731.31;4899296;29;20389;-82
2023/10/30 06:47:19;;;;;;;11.85;3.13;;;;;;;8.30;100.00;99722.88;4916411;29;20024;-84
2023/10/30 06:49:44;;;;;;;13.48;3.42;;;;;;;8.33;100.00;99727.75;4916232;29;20055;-84
2023/10/30 06:52:10;;;;;;;18.90;4.93;;;;;;;8.44;100.00;99736.84;4916234;29;20055;-83
2023/10/30 06:54:36;;;;;;;13.00;3.63;;;;;;;8.33;100.00;99705.63;4883872;29;20131;-85
2023/10/30 06:57:01;;;;;;;12.18;3.92;;;;;;;8.35;100.00;99708.91;4883926;29;20123;-85
2023/10/30 06:59:27;;;;;;;14.13;4.13;;;;;;;8.89;100.00;99723.84;4915529;29;20477;-84
2023/10/30 07:01:53;;;;;;;15.70;3.20;;;;;;;9.46;100.00;99741.91;4914949;29;20565;-85
2023/10/30 07:04:21;;;;;;;13.60;4.78;;;;;;;10.03;100.00;99734.03;4899076;29;20090;-82
2023/10/30 07:06:46;;;;;;;12.80;3.75;;;;;;;10.42;100.00;99737.75;4898982;29;20556;-84
2023/10/30 07:09:12;;;;;;;9.70;3.33;;;;;;;10.73;100.00;99741.75;4916109;29;20028;-85
2023/10/30 07:11:42;;;;;;;12.50;2.90;;;;;;;11.16;100.00;99731.19;4916076;29;20036;-84
2023/10/30 07:14:08;;;;;;;9.98;2.90;;;;;;;11.47;100.00;99743.16;4916043;29;20126;-83
2023/10/30 07:16:34;;;;;;;12.07;3.03;;;;;;;11.61;100.00;99751.66;4898933;29;20175;-84
2023/10/30 07:18:59;;;;;;;7.40;3.30;;;;;;;12.00;100.00;99747.06;4915797;29;20043;-84
2023/10/30 07:21:28;;;;;;;12.65;3.05;;;;;;;12.32;100.00;99747.16;4915823;29;20115;-82
2023/10/30 07:23:54;;;;;;;8.82;2.95;;;;;;;12.40;100.00;99743.22;4898960;29;20063;-84
2023/10/30 07:26:21;;;;;;;10.27;2.58;;;;;;;12.13;100.00;99747.72;4915880;29;20032;-86
2023/10/30 07:28:49;;;;;;;14.45;2.92;;;;;;;11.97;100.00;99762.84;4915791;29;20032;-84
2023/10/30 07:31:17;;;;;;;9.93;2.58;;;;;;;11.74;100.00;99766.53;4915829;29;20028;-85
2023/10/30 07:33:43;;;;;;;10.85;3.20;;;;;;;11.40;100.00;99766.59;4898856;29;20118;-84
2023/10/30 07:43:04;;;;;;;18.55;7.82;;;;;;;11.61;100.00;99777.63;4897294;29;20052;-80
2023/10/30 07:45:30;;;;;;;26.13;15.90;;;;;;;11.50;100.00;99787.34;4915763;29;20028;-86
2023/10/30 08:01:20;;;;;;;11.25;3.22;;;;;;;11.65;100.00;99762.66;4876471;29;20106;-85
2023/10/30 08:04:20;;;;;;;12.63;3.50;;;;;;;11.26;100.00;99727.84;4860269;29;20033;-84
2023/10/30 08:10:08;;;;;;;8.15;2.70;;;;;;;11.65;100.00;99757.31;4859009;29;20064;-85
2023/10/30 08:12:36;;;;;;;9.45;3.03;;;;;;;11.63;100.00;99754.06;4862693;29;20101;-85
2023/10/30 08:15:34;;;;;;;12.65;3.97;;;;;;;12.21;100.00;99740.09;4873996;29;20482;-85
2023/10/30 10:55:02;;;;;;;3.97;1.90;;;;;;;12.78;100.00;99728.81;4917266;29;20548;-84
2023/10/30 10:57:34;;;;;;;9.65;3.20;;;;;;;12.78;100.00;99736.88;4916674;29;20107;-81
2023/10/30 11:00:07;;;;;;;6.82;2.65;;;;;;;12.85;100.00;99750.88;4899578;29;20028;-83
2023/10/30 11:02:37;;;;;;;8.30;3.58;;;;;;;12.91;100.00;99738.31;4899532;29;20499;-84
2023/10/30 11:05:05;;;;;;;8.02;2.35;;;;;;;12.89;100.00;99741.25;4899268;29;20103;-83
2023/10/30 11:07:52;;;;;;;6.82;2.92;;;;;;;12.97;100.00;99737.28;4916351;29;20051;-83
2023/10/30 11:10:23;;;;;;;5.03;2.05;;;;;;;13.02;100.00;99731.97;4916205;29;20032;-82
2023/10/30 11:13:05;;;;;;;7.47;2.10;;;;;;;13.09;100.00;99734.44;4899162;29;20401;-84
2023/10/30 11:15:34;;;;;;;7.65;2.13;;;;;;;13.13;100.00;99730.97;4916448;29;20477;-85
2023/10/30 11:18:17;;;;;;;7.00;2.10;;;;;;;13.13;100.00;99730.16;4899093;29;20028;-85
2023/10/30 11:20:44;;;;;;;5.80;1.90;;;;;;;13.19;100.00;99729.16;4916129;29;20094;-86
2023/10/30 11:23:09;;;;;;;3.33;1.90;;;;;;;13.22;100.00;99715.22;4899138;29;20028;-83
2023/10/30 11:26:11;;;;;;;5.75;2.03;;;;;;;13.35;100.00;99730.88;4899112;29;20489;-85
2023/10/30 11:28:35;;;;;;;10.40;3.65;;;;;;;13.26;100.00;99708.25;4912082;29;20103;-86
2023/10/30 11:31:06;;;;;;;6.95;1.95;;;;;;;13.23;100.00;99693.47;4898988;29;20032;-85
2023/10/30 11:33:31;;;;;;;7.55;2.33;;;;;;;13.21;100.00;99694.81;4898883;29;20136;-84
2023/10/30 11:36:21;;;;;;;9.50;2.67;;;;;;;13.23;100.00;99701.53;4898877;29;20082;-86
2023/10/30 11:38:52;;;;;;;8.50;2.65;;;;;;;13.29;100.00;99694.31;4898842;29;20036;-84
2023/10/30 11:41:18;;;;;;;5.28;2.08;;;;;;;13.45;100.00;99693.34;4898907;29;20095;-85
2023/10/30 11:43:45;;;;;;;5.93;2.72;;;;;;;13.60;100.00;99688.03;4898893;29;20036;-85
2023/10/30 11:46:13;;;;;;;4.82;1.92;;;;;;;13.64;100.00;99688.31;4898302;29;20040;-86
2023/10/30 11:48:40;;;;;;;6.63;2.60;;;;;;;13.50;100.00;99663.81;4898676;29;20056;-85
2023/10/30 11:51:07;;;;;;;5.65;2.20;;;;;;;13.54;100.00;99658.72;4915590;29;20051;-84
2023/10/30 11:53:33;;;;;;;5.22;2.00;;;;;;;13.70;100.00;99675.72;4898462;29;20131;-86
2023/10/30 11:55:59;;;;;;;6.15;1.92;;;;;;;13.63;100.00;99674.09;4898599;29;20442;-85
2023/10/30 11:58:24;;;;;;;5.28;1.88;;;;;;;13.58;100.00;99679.41;4915647;29;20032;-85
2023/10/30 12:00:49;;;;;;;4.22;2.40;;;;;;;13.55;100.00;99673.75;4915542;29;20079;-85
2023/10/30 12:03:15;;;;;;;8.52;2.13;;;;;;;13.49;100.00;99664.88;4915404;29;20021;-86
2023/10/30 12:05:41;;;;;;;3.10;1.70;;;;;;;13.49;100.00;99666.75;4915411;29;20044;-89
2023/10/30 12:08:06;;;;;;;9.43;2.08;;;;;;;13.41;100.00;99651.16;4914275;29;20528;-86
2023/10/30 12:10:32;;;;;;;4.45;1.65;;;;;;;13.48;100.00;99659.78;4898618;29;20036;-87
2023/10/30 12:12:59;;;;;;;6.97;2.20;;;;;;;13.36;100.00;99643.88;4898285;29;20032;-85
2023/10/30 12:15:28;;;;;;;5.05;2.03;;;;;;;13.41;100.00;99656.53;4898305;29;20036;-86
2023/10/30 12:17:53;;;;;;;9.88;2.17;;;;;;;13.32;100.00;99642.81;4898305;29;20036;-84
2023/10/30 12:20:19;;;;;;;4.47;2.25;;;;;;;13.37;100.00;99644.69;4898157;29;20036;-86
2023/10/30 12:22:46;;;;;;;5.18;2.10;;;;;;;13.32;100.00;99632.06;4898325;29;20490;-87
2023/10/30 12:25:16;;;;;;;6.60;2.40;;;;;;;13.36;100.00;99635.84;4898275;29;20035;-85
2023/10/30 12:27:42;;;;;;;4.25;1.90;;;;;;;13.33;100.00;99626.44;4898577;29;20130;-85
2023/10/30 12:30:11;;;;;;;7.85;1.80;;;;;;;13.36;100.00;99629.66;4898480;29;20176;-85
2023/10/30 12:32:37;;;;;;;7.93;2.65;;;;;;;13.35;100.00;99611.94;4898259;29;20074;-86
2023/10/30 12:35:16;;;;;;;4.00;2.17;;;;;;;13.31;100.00;99615.16;4915416;29;20072;-86
2023/10/30 12:37:42;;;;;;;5.10;1.83;;;;;;;13.30;100.00;99599.28;4898225;29;20028;-85
2023/10/30 12:40:14;;;;;;;3.38;1.70;;;;;;;13.38;100.00;99597.97;4898055;29;20511;-85
2023/10/30 12:42:41;;;;;;;;;;;;;;;13.45;100.00;99614.66;4898338;29;20036;-84
2023/10/30 12:45:07;;;;;;;4.70;2.00;;;;;;;13.39;100.00;99599.59;4898024;29;19915;-84
2023/10/30 12:47:34;;;;;;;5.47;1.90;;;;;;;13.37;100.00;99594.47;4897967;29;20028;-85
2023/10/30 12:49:59;;;;;;;6.00;2.17;;;;;;;13.32;100.00;99584.53;4897945;29;20042;-85
2023/10/30 12:52:25;;;;;;;6.95;2.00;;;;;;;13.40;100.00;99577.03;4897845;29;20020;-84
2023/10/30 12:54:50;;;;;;;3.40;1.90;;;;;;;13.46;100.00;99574.09;4897873;29;20099;-81
2023/10/30 12:57:15;;;;;;;3.83;1.90;;;;;;;13.45;100.00;99566.31;4914772;29;20024;-83
2023/10/30 12:59:41;;;;;;;6.00;2.00;;;;;;;13.45;100.00;99571.69;4918050;29;20075;-86
2023/10/30 13:02:06;;;;;;;4.50;1.88;;;;;;;13.39;100.00;99576.22;4916736;29;20272;-80
2023/10/30 13:04:33;;;;;;;2.70;1.83;;;;;;;13.24;100.00;99558.19;4917929;29;20024;-80
2023/10/30 13:06:58;;;;;;;4.55;1.95;;;;;;;13.23;100.00;99556.56;4917850;29;20474;-79
2023/10/30 13:09:29;;;;;;;5.22;2.15;;;;;;;13.12;100.00;99540.66;4918115;29;20063;-83
2023/10/30 13:11:54;;;;;;;4.22;2.40;;;;;;;13.18;100.00;99547.69;4917997;29;20043;-82
2023/10/30 13:14:21;;;;;;;3.65;2.40;;;;;;;13.13;100.00;99529.66;4917790;29;20482;-82
2023/10/30 13:16:46;;;;;;;5.38;1.98;;;;;;;13.15;100.00;99518.66;4900686;29;20513;-83
2023/10/30 13:19:13;;;;;;;5.80;2.00;;;;;;;13.25;100.00;99500.72;4900825;29;20162;-81
2023/10/30 13:21:38;;;;;;;5.38;2.40;;;;;;;13.46;100.00;99514.22;4917832;29;20284;-82
2023/10/30 13:24:04;;;;;;;2.45;1.70;;;;;;;13.54;100.00;99521.75;4900761;29;20024;-80
2023/10/30 13:26:30;;;;;;;2.97;1.58;;;;;;;13.48;100.00;99517.44;4917774;29;20489;-82
2023/10/30 13:28:55;;;;;;;5.25;2.00;;;;;;;13.50;100.00;99528.72;4917606;29;20024;-83
2023/10/30 13:31:21;;;;;;;3.25;1.70;;;;;;;13.40;100.00;99520.66;4917601;29;20091;-83
2023/10/30 13:33:48;;;;;;;2.70;1.92;;;;;;;13.32;100.00;99514.75;4917598;29;20043;-83
2023/10/30 13:36:15;;;;;;;4.05;1.88;;;;;;;13.31;100.00;99512.31;4900674;29;20040;-82
2023/10/30 13:38:40;;;;;;;4.07;2.00;;;;;;;13.24;100.00;99506.38;4900831;29;20028;-83
2023/10/30 13:41:05;;;;;;;9.75;2.17;;;;;;;13.28;100.00;99505.56;4900386;29;20127;-83
2023/10/30 13:43:31;;;;;;;2.17;1.60;;;;;;;13.25;100.00;99498.06;4900341;29;20405;-83
2023/10/30 13:45:56;;;;;;;3.63;1.60;;;;;;;13.22;100.00;99489.72;4917396;29;20040;-83
2023/10/30 13:48:22;;;;;;;5.22;1.63;;;;;;;13.30;100.00;99495.41;4917399;29;20384;-84
2023/10/30 13:50:48;;;;;;;2.60;1.67;;;;;;;13.26;100.00;99483.56;4900320;29;20425;-82
2023/10/30 13:53:13;;;;;;;4.80;1.55;;;;;;;13.27;100.00;99492.41;4917210;29;20489;-83
2023/10/30 13:55:38;;;;;;;4.10;1.70;;;;;;;13.23;100.00;99484.09;4900488;29;20066;-81
2023/10/30 13:58:04;;;;;;;4.17;1.50;;;;;;;13.13;100.00;99480.56;4900284;29;20382;-83
2023/10/30 14:00:31;;;;;;;1.90;1.50;;;;;;;13.07;100.00;99484.28;4900329;29;20316;-82
2023/10/30 14:02:56;;;;;;;3.10;1.70;;;;;;;12.95;100.00;99482.63;4900207;29;20118;-84
2023/10/30 14:05:22;;;;;;;2.83;1.80;;;;;;;12.81;100.00;99462.72;4915707;29;20127;-83
2023/10/30 14:07:48;;;;;;;3.72;1.77;;;;;;;12.94;100.00;99480.22;4900026;29;20030;-83
2023/10/30 14:10:13;;;;;;;4.40;1.90;;;;;;;12.89;100.00;99475.63;4916935;29;20120;-84
2023/10/30 14:12:38;;;;;;;5.28;1.90;;;;;;;12.92;100.00;99471.63;4899990;29;20455;-84
2023/10/30 14:15:04;;;;;;;2.97;1.75;;;;;;;12.89;100.00;99485.56;4900042;29;20042;-82
2023/10/30 14:17:30;;;;;;;5.28;1.75;;;;;;;12.87;100.00;99480.47;4916842;29;20481;-82
2023/10/30 14:19:55;;;;;;;3.28;1.85;;;;;;;12.77;100.00;99476.94;4916742;29;20032;-83
2023/10/30 14:22:21;;;;;;;2.42;1.80;;;;;;;12.70;100.00;99479.84;4917074;29;20051;-83
2023/10/30 14:24:47;;;;;;;4.82;2.00;;;;;;;12.59;100.00;99470.13;4899651;29;20059;-85